Time;durP1;ratioP1;P1;durP2;ratioP2;P2;SDS_P1;SDS_P2;PMS_P1;PMS_P2;Temp;Humidity;BMP_temperature;BMP_pressure;BME280_temperature;BME280_humidity;BME280_pressure;Samples;Min_cycle;Max_cycle;Signal;HPM_P1;HPM_P2
2022/06/13 00:00:11;;;;;;;1.63;0.40;;;;;;;16.00;85.54;100704.84;5030396;28;20516;-76
2022/06/13 00:02:39;;;;;;;1.02;0.40;;;;;;;16.07;83.63;100709.25;5031477;28;20491;-76
2022/06/13 00:05:11;;;;;;;0.70;0.45;;;;;;;16.11;85.08;100717.97;5030036;28;20057;-77
2022/06/13 00:07:39;;;;;;;1.98;0.40;;;;;;;16.14;84.10;100715.38;5030284;28;20184;-76
2022/06/13 00:10:09;;;;;;;2.10;0.30;;;;;;;16.21;83.64;100713.69;5031109;28;20057;-76
2022/06/13 00:12:38;;;;;;;0.80;0.43;;;;;;;16.26;81.28;100715.47;5030360;28;20499;-76
2022/06/13 00:15:08;;;;;;;1.10;0.38;;;;;;;16.34;84.11;100712.88;5028912;28;20057;-76
2022/06/13 00:17:36;;;;;;;0.75;0.60;;;;;;;16.37;74.27;100717.25;5029716;28;20049;-76
2022/06/13 00:20:06;;;;;;;3.03;0.40;;;;;;;16.39;73.14;100719.00;5030209;28;20049;-76
2022/06/13 00:22:37;;;;;;;0.68;0.30;;;;;;;16.46;74.83;100725.13;5030478;28;20050;-77
2022/06/13 00:25:06;;;;;;;1.55;0.40;;;;;;;16.45;69.21;100724.25;5029712;28;20487;-76
2022/06/13 00:27:34;;;;;;;1.70;0.60;;;;;;;16.47;68.18;100717.31;5029023;28;20045;-78
2022/06/13 00:30:05;;;;;;;0.60;0.25;;;;;;;16.55;66.34;100727.78;5030046;28;20483;-77
2022/06/13 00:32:33;;;;;;;3.38;0.60;;;;;;;16.53;68.47;100732.13;5030191;28;20107;-77
2022/06/13 00:35:02;;;;;;;1.40;0.40;;;;;;;16.51;64.88;100736.47;5028500;28;20052;-78
2022/06/13 00:37:30;;;;;;;4.13;0.68;;;;;;;16.45;63.76;100739.94;5023212;28;20046;-78
2022/06/13 00:40:01;;;;;;;1.48;0.45;;;;;;;16.41;64.65;100739.91;5031949;28;20045;-78
2022/06/13 00:42:29;;;;;;;2.28;0.50;;;;;;;16.34;64.65;100745.09;5030460;28;20045;-79
2022/06/13 00:45:13;;;;;;;2.30;0.52;;;;;;;16.32;64.82;100748.56;5019112;28;20053;-78
2022/06/13 00:47:45;;;;;;;0.75;0.30;;;;;;;16.27;62.15;100751.13;5023474;28;20048;-78
2022/06/13 00:50:20;;;;;;;0.65;0.30;;;;;;;16.22;61.80;100750.25;5025612;28;20475;-82
2022/06/13 00:52:54;;;;;;;2.10;0.55;;;;;;;16.16;60.09;100749.31;5026019;28;20053;-77
2022/06/13 00:55:29;;;;;;;2.13;0.40;;;;;;;16.18;60.76;100755.44;5026626;28;20051;-78
2022/06/13 00:58:00;;;;;;;1.45;0.30;;;;;;;16.24;61.79;100755.44;5027439;28;20495;-86
2022/06/13 01:00:31;;;;;;;0.90;0.40;;;;;;;16.23;62.09;100758.94;5020907;28;20045;-81
2022/06/13 01:03:02;;;;;;;1.50;0.45;;;;;;;16.19;60.78;100768.47;5030679;28;20046;-81
2022/06/13 01:05:35;;;;;;;2.72;0.52;;;;;;;16.19;60.26;100757.16;5028260;28;20117;-79
2022/06/13 01:08:06;;;;;;;2.80;0.80;;;;;;;16.19;59.70;100762.38;5029610;28;20084;-80
2022/06/13 01:13:41;;;;;;;2.83;0.40;;;;;;;16.48;60.15;100775.63;5015704;28;20415;-81
2022/06/13 01:16:23;;;;;;;2.45;0.30;;;;;;;16.54;54.78;100776.53;5029358;28;20045;-82
2022/06/13 01:19:36;;;;;;;0.30;0.30;;;;;;;16.66;55.22;100772.25;5028616;28;20053;-81
2022/06/13 01:22:26;;;;;;;1.05;0.30;;;;;;;16.72;56.73;100774.88;5027533;28;20490;-80
2022/06/13 01:25:29;;;;;;;3.10;0.40;;;;;;;16.80;55.20;100775.81;5030502;28;20057;-82
2022/06/13 01:28:31;;;;;;;1.38;0.50;;;;;;;16.87;53.76;100777.59;5024122;28;20546;-80
2022/06/13 01:31:16;;;;;;;1.48;0.30;;;;;;;16.87;51.93;100784.56;5023644;28;20045;-78
2022/06/13 01:33:55;;;;;;;0.98;0.40;;;;;;;16.90;53.75;100787.19;5031963;28;20071;-78
2022/06/13 01:36:38;;;;;;;2.60;0.38;;;;;;;16.92;54.29;100783.69;5026884;28;20095;-80
2022/06/13 01:39:20;;;;;;;0.63;0.30;;;;;;;16.98;53.14;100792.47;5028615;28;20386;-79
2022/06/13 01:42:04;;;;;;;0.22;0.20;;;;;;;16.98;52.79;100793.31;5027542;28;20053;-79
2022/06/13 01:44:44;;;;;;;1.00;0.40;;;;;;;17.00;52.41;100798.56;5027808;28;20057;-77
2022/06/13 01:47:22;;;;;;;1.10;0.40;;;;;;;16.88;50.67;100787.19;5029714;28;20421;-79
2022/06/13 01:50:01;;;;;;;2.72;0.30;;;;;;;16.77;50.44;100799.31;5025372;28;20127;-82
2022/06/13 01:52:43;;;;;;;2.58;0.47;;;;;;;16.64;51.64;100800.97;5025305;28;20051;-78
2022/06/13 01:55:21;;;;;;;1.38;0.30;;;;;;;16.59;53.17;100800.06;5026492;28;20061;-79
2022/06/13 01:57:54;;;;;;;0.50;0.30;;;;;;;16.52;54.16;100804.38;5027089;28;20049;-78
2022/06/13 02:00:29;;;;;;;2.92;0.57;;;;;;;16.51;53.64;100813.06;5021103;28;20459;-77
2022/06/13 02:03:05;;;;;;;1.20;0.40;;;;;;;16.47;55.07;100813.94;5028666;28;20061;-79
2022/06/13 02:05:39;;;;;;;1.73;0.52;;;;;;;16.52;55.56;100824.41;5025453;28;20045;-80
2022/06/13 02:08:13;;;;;;;1.38;0.30;;;;;;;16.36;52.80;100822.56;5028538;28;20052;-78
2022/06/13 02:10:45;;;;;;;1.63;0.40;;;;;;;16.23;54.69;100832.91;5026963;28;20484;-79
2022/06/13 02:13:20;;;;;;;2.28;0.43;;;;;;;16.15;55.40;100833.72;5027854;28;20085;-81
2022/06/13 02:15:54;;;;;;;1.58;0.40;;;;;;;16.06;54.34;100844.97;5024898;28;20107;-78
2022/06/13 02:18:31;;;;;;;2.88;0.60;;;;;;;15.96;54.97;100841.38;5019929;28;20072;-78
2022/06/13 02:21:07;;;;;;;0.70;0.40;;;;;;;15.91;55.09;100845.69;5022244;28;20101;-79
2022/06/13 02:23:40;;;;;;;0.95;0.35;;;;;;;15.86;56.33;100842.19;5016637;28;20042;-77
2022/06/13 02:26:13;;;;;;;1.00;0.40;;;;;;;15.80;56.95;100847.31;5029447;28;20095;-79
2022/06/13 02:28:53;;;;;;;2.45;0.40;;;;;;;15.72;55.77;100859.44;5031785;28;20037;-78
2022/06/13 02:31:27;;;;;;;0.82;0.25;;;;;;;15.62;55.64;100853.19;5027198;28;20046;-79
2022/06/13 02:34:01;;;;;;;0.70;0.20;;;;;;;15.52;58.16;100856.59;5027952;28;20045;-77
2022/06/13 02:36:37;;;;;;;1.45;0.30;;;;;;;15.44;55.81;100859.97;5028932;28;20054;-78
2022/06/13 02:39:11;;;;;;;2.55;0.32;;;;;;;15.36;57.45;100866.81;5028237;28;20137;-78
2022/06/13 02:41:45;;;;;;;1.13;0.38;;;;;;;15.28;57.84;100871.97;5026708;28;20641;-77
2022/06/13 02:44:21;;;;;;;0.68;0.20;;;;;;;15.28;55.26;100879.78;5027665;28;20049;-77
2022/06/13 02:46:55;;;;;;;0.95;0.30;;;;;;;15.28;57.10;100879.78;5027677;28;20068;-78
2022/06/13 02:49:32;;;;;;;1.23;0.30;;;;;;;15.29;57.71;100876.31;5028632;28;20052;-78
2022/06/13 02:52:07;;;;;;;0.73;0.45;;;;;;;15.30;56.76;100882.38;5027381;28;20046;-77
2022/06/13 02:54:42;;;;;;;1.25;0.20;;;;;;;15.28;58.39;100892.81;5027499;28;20045;-77
2022/06/13 02:57:27;;;;;;;2.00;0.25;;;;;;;15.27;56.57;100882.38;5028832;28;20049;-76
2022/06/13 03:00:16;;;;;;;1.13;0.30;;;;;;;15.28;56.17;100890.22;5025383;28;20046;-76
2022/06/13 03:02:56;;;;;;;1.10;0.20;;;;;;;15.27;56.10;100891.06;5025119;28;20085;-76
2022/06/13 03:05:50;;;;;;;0.45;0.20;;;;;;;15.26;55.88;100891.91;5029629;28;20061;-75
2022/06/13 03:08:33;;;;;;;2.42;0.20;;;;;;;15.24;55.18;100885.81;5027021;28;20045;-76
2022/06/13 03:11:09;;;;;;;1.63;0.28;;;;;;;15.24;56.71;100900.59;5032537;28;20049;-76
2022/06/13 03:13:47;;;;;;;0.30;0.20;;;;;;;15.22;56.31;100897.06;5027285;28;20041;-76
2022/06/13 03:16:26;;;;;;;0.40;0.20;;;;;;;15.15;55.62;100901.34;5029391;28;20096;-75
2022/06/13 03:19:02;;;;;;;1.67;0.55;;;;;;;15.12;56.57;100903.91;5030275;28;20075;-76
2022/06/13 03:21:36;;;;;;;2.28;0.22;;;;;;;15.01;56.71;100898.53;5031640;28;20049;-75
2022/06/13 03:24:13;;;;;;;0.40;0.13;;;;;;;14.88;57.04;100905.31;5022859;28;20041;-75
2022/06/13 03:26:47;;;;;;;0.73;0.20;;;;;;;14.70;57.81;100904.16;5029210;28;20495;-75
2022/06/13 03:29:23;;;;;;;0.80;0.28;;;;;;;14.70;56.92;100920.66;5031809;28;20127;-75
2022/06/13 03:31:55;;;;;;;1.45;0.15;;;;;;;14.62;58.47;100928.38;5030294;28;20048;-76
2022/06/13 03:34:30;;;;;;;0.93;0.20;;;;;;;14.53;58.96;100932.53;5031325;28;20050;-74
2022/06/13 03:37:06;;;;;;;1.00;0.17;;;;;;;14.38;59.24;100918.38;5021712;28;20507;-75
2022/06/13 03:39:40;;;;;;;0.45;0.20;;;;;;;14.39;59.37;100927.09;5030891;28;20057;-76
2022/06/13 03:42:14;;;;;;;0.30;0.15;;;;;;;14.34;59.96;100931.31;5030725;28;20049;-76
2022/06/13 03:44:52;;;;;;;1.40;0.20;;;;;;;14.27;59.62;100938.19;5028006;28;20041;-76
2022/06/13 03:47:27;;;;;;;1.58;0.25;;;;;;;14.21;60.58;100935.47;5022441;28;20041;-75
2022/06/13 03:49:59;;;;;;;0.85;0.13;;;;;;;14.16;62.00;100942.31;5030359;28;20887;-76
2022/06/13 03:52:33;;;;;;;0.95;0.25;;;;;;;14.08;61.61;100943.88;5031140;28;20108;-76
2022/06/13 03:55:06;;;;;;;0.60;0.25;;;;;;;14.03;63.05;100944.69;5030563;28;20538;-75
2022/06/13 03:57:40;;;;;;;1.25;0.17;;;;;;;13.99;62.90;100955.00;5028350;28;20049;-76
2022/06/13 04:00:13;;;;;;;2.28;0.10;;;;;;;13.91;63.12;100954.88;5029821;28;20492;-75
2022/06/13 04:02:43;;;;;;;0.45;0.13;;;;;;;13.87;62.59;100955.66;5028784;28;20499;-75
2022/06/13 04:05:20;;;;;;;2.10;0.38;;;;;;;13.83;62.98;100948.63;5023907;28;20061;-75
2022/06/13 04:07:50;;;;;;;1.98;0.40;;;;;;;13.78;62.51;100956.34;5030856;28;20053;-76
2022/06/13 04:10:21;;;;;;;0.38;0.10;;;;;;;13.74;63.58;100951.94;5030816;28;20049;-75
2022/06/13 04:13:14;;;;;;;0.45;0.22;;;;;;;13.71;64.03;100961.41;5030868;28;20136;-76
2022/06/13 04:16:01;;;;;;;0.75;0.30;;;;;;;13.61;63.88;100966.41;5027892;28;20049;-75
2022/06/13 04:18:57;;;;;;;0.95;0.13;;;;;;;13.54;64.49;100966.28;5025817;28;20054;-75
2022/06/13 04:21:33;;;;;;;0.47;0.20;;;;;;;13.51;64.13;100974.84;5023013;28;20116;-75
2022/06/13 04:24:17;;;;;;;0.43;0.30;;;;;;;13.49;64.77;100973.97;5030625;28;20136;-75
2022/06/13 04:26:51;;;;;;;1.92;0.22;;;;;;;13.47;65.53;100977.34;5029033;28;20451;-76
2022/06/13 04:29:27;;;;;;;2.13;0.63;;;;;;;13.43;65.88;100986.84;5029234;28;20045;-75
2022/06/13 04:32:02;;;;;;;2.92;0.32;;;;;;;13.35;66.33;100990.97;5027879;28;20049;-76
2022/06/13 04:34:36;;;;;;;1.98;0.35;;;;;;;13.25;66.41;100994.19;5029469;28;20050;-76
2022/06/13 04:37:07;;;;;;;1.70;0.40;;;;;;;13.13;67.36;101006.06;5027641;28;20046;-76
2022/06/13 04:39:39;;;;;;;0.22;0.13;;;;;;;12.98;69.20;101006.56;5030479;28;20491;-76
2022/06/13 04:42:10;;;;;;;0.50;0.30;;;;;;;12.88;70.24;101008.94;5030129;28;20049;-76
2022/06/13 04:44:41;;;;;;;0.40;0.28;;;;;;;12.82;71.82;101013.97;5027634;28;20096;-75
2022/06/13 04:47:13;;;;;;;0.98;0.30;;;;;;;12.76;72.71;101015.56;5028124;28;20138;-76
2022/06/13 04:49:46;;;;;;;0.28;0.20;;;;;;;12.68;73.94;101026.59;5029038;28;20487;-75
2022/06/13 04:52:19;;;;;;;1.20;0.22;;;;;;;12.60;74.65;101026.44;5029786;28;20057;-75
2022/06/13 04:54:55;;;;;;;0.30;0.13;;;;;;;12.55;75.33;101036.69;5027707;28;20053;-75
2022/06/13 04:57:24;;;;;;;0.20;0.20;;;;;;;12.53;75.14;101038.38;5020648;28;20104;-75
2022/06/13 04:59:52;;;;;;;2.17;0.40;;;;;;;12.55;76.19;101035.78;5029236;28;20106;-75
2022/06/13 05:02:24;;;;;;;2.28;0.32;;;;;;;12.56;75.61;101038.44;5029226;28;20045;-75
2022/06/13 05:04:53;;;;;;;1.70;1.00;;;;;;;12.56;75.56;101042.75;5029441;28;20053;-75
2022/06/13 05:07:25;;;;;;;1.58;0.20;;;;;;;12.54;75.65;101045.28;5028866;28;20787;-75
2022/06/13 05:10:00;;;;;;;0.77;0.30;;;;;;;12.53;75.62;101050.47;5025531;28;20112;-75
2022/06/13 05:12:34;;;;;;;1.40;0.30;;;;;;;12.50;76.02;101056.44;5032971;28;20053;-76
2022/06/13 05:15:08;;;;;;;0.45;0.15;;;;;;;12.47;76.03;101064.16;5029661;28;20459;-76
2022/06/13 05:18:13;;;;;;;3.95;0.28;;;;;;;12.42;76.72;101075.25;5029335;28;20045;-76
2022/06/13 05:20:55;;;;;;;1.10;0.20;;;;;;;12.35;76.74;101064.69;4942649;28;20142;-76
2022/06/13 05:23:49;;;;;;;0.43;0.17;;;;;;;12.32;77.11;101072.41;5021028;28;20049;-75
2022/06/13 05:26:20;;;;;;;2.15;0.20;;;;;;;12.30;77.69;101071.50;5023567;28;20574;-76
2022/06/13 05:28:49;;;;;;;3.42;0.20;;;;;;;12.31;77.19;101074.94;5030156;28;20128;-76
2022/06/13 05:31:20;;;;;;;0.20;0.10;;;;;;;12.29;77.03;101081.81;5028489;28;20380;-76
2022/06/13 05:33:51;;;;;;;0.10;0.10;;;;;;;12.26;76.65;101085.22;5027499;28;20045;-76
2022/06/13 05:36:22;;;;;;;0.45;0.20;;;;;;;12.22;76.52;101080.75;5024439;28;20057;-76
2022/06/13 05:38:54;;;;;;;0.47;0.20;;;;;;;12.19;77.59;101092.78;5029195;28;20065;-76
2022/06/13 05:41:24;;;;;;;0.10;0.10;;;;;;;12.18;77.40;101086.69;5027806;28;20045;-76
2022/06/13 05:43:53;;;;;;;0.80;0.30;;;;;;;12.16;76.96;101090.94;5022967;28;20064;-76
2022/06/13 05:46:27;;;;;;;0.32;0.20;;;;;;;12.12;77.35;101096.91;5029038;28;20053;-76
2022/06/13 05:48:56;;;;;;;1.67;0.10;;;;;;;12.09;77.64;101096.81;5028701;28;20119;-76
2022/06/13 05:51:25;;;;;;;0.00;0.00;;;;;;;12.05;78.25;101102.72;5019358;28;20045;-76
2022/06/13 05:53:53;;;;;;;0.40;0.10;;;;;;;12.02;78.34;101105.25;5027108;28;20045;-75
2022/06/13 05:56:24;;;;;;;0.55;0.20;;;;;;;11.99;79.83;101103.44;5027806;28;20046;-75
2022/06/13 05:58:52;;;;;;;1.30;0.40;;;;;;;12.02;82.84;101102.66;5028066;28;20053;-75
2022/06/13 06:01:21;;;;;;;1.48;0.40;;;;;;;12.02;84.07;101113.03;5028390;28;20045;-75
2022/06/13 06:03:49;;;;;;;0.25;0.20;;;;;;;12.00;84.86;101112.09;5030346;28;20056;-76
2022/06/13 06:06:24;;;;;;;0.30;0.20;;;;;;;11.97;84.87;101112.03;5023742;28;20045;-75
2022/06/13 06:08:54;;;;;;;0.70;0.20;;;;;;;11.99;85.52;101118.13;5023902;28;20045;-75
2022/06/13 06:11:25;;;;;;;0.95;0.32;;;;;;;11.99;84.56;101115.53;5029020;28;20467;-76
2022/06/13 06:14:01;;;;;;;0.00;0.00;;;;;;;11.95;85.50;101120.63;5021313;28;20053;-75
2022/06/13 06:16:30;;;;;;;1.58;0.30;;;;;;;11.95;85.79;101115.44;5027243;28;20084;-75
2022/06/13 06:18:59;;;;;;;2.90;0.20;;;;;;;11.94;86.41;101118.00;5028962;28;20112;-74
2022/06/13 06:21:28;;;;;;;8.02;0.68;;;;;;;11.91;86.52;101112.69;5025956;28;20147;-76
2022/06/13 06:23:56;;;;;;;0.30;0.22;;;;;;;11.91;85.96;101107.53;5028600;28;20053;-75
2022/06/13 06:26:27;;;;;;;4.80;0.40;;;;;;;11.93;86.78;101111.03;5026630;28;20049;-76
2022/06/13 06:28:56;;;;;;;0.25;0.20;;;;;;;11.94;87.78;101118.00;5029146;28;20499;-76
2022/06/13 06:31:24;;;;;;;1.00;0.22;;;;;;;11.94;87.50;101115.41;5024416;28;20104;-76
2022/06/13 06:33:53;;;;;;;0.60;0.20;;;;;;;11.94;87.08;101118.88;5027959;28;20388;-76
2022/06/13 06:36:22;;;;;;;1.10;0.20;;;;;;;11.93;86.59;101117.13;5028278;28;20132;-76
2022/06/13 06:38:50;;;;;;;0.30;0.15;;;;;;;11.95;85.44;101123.22;5027859;28;20063;-76
2022/06/13 06:41:19;;;;;;;0.57;0.30;;;;;;;11.93;85.62;101122.31;5027975;28;20042;-76
2022/06/13 06:43:49;;;;;;;3.90;0.47;;;;;;;11.91;86.26;101123.97;5027999;28;20049;-76
2022/06/13 06:46:18;;;;;;;3.65;0.30;;;;;;;11.88;86.56;101123.00;5030414;28;20088;-76
2022/06/13 06:48:46;;;;;;;0.85;0.22;;;;;;;11.87;86.77;101126.41;5031606;28;20060;-76
2022/06/13 06:51:17;;;;;;;1.58;0.20;;;;;;;11.84;87.38;101129.78;5027704;28;20050;-76
2022/06/13 07:02:04;;;;;;;3.63;0.20;;;;;;;11.80;88.19;101132.25;5030877;28;20048;-76
2022/06/13 07:04:32;;;;;;;2.15;0.20;;;;;;;11.80;88.66;101134.84;5036234;28;20542;-76
2022/06/13 07:07:01;;;;;;;1.00;0.20;;;;;;;11.75;89.39;101139.88;5027600;28;20112;-76
2022/06/13 07:09:29;;;;;;;1.20;0.20;;;;;;;11.74;89.29;101140.69;5025474;28;20049;-76
2022/06/13 07:11:58;;;;;;;0.52;0.30;;;;;;;11.73;89.65;101145.00;5028588;28;20045;-75
2022/06/13 07:14:31;;;;;;;2.63;0.32;;;;;;;11.74;89.31;101145.88;5022493;28;20037;-76
2022/06/13 07:17:01;;;;;;;0.63;0.47;;;;;;;11.76;89.40;101141.63;5030946;28;20045;-76
2022/06/13 07:19:30;;;;;;;3.05;0.38;;;;;;;11.80;89.07;101147.78;5029080;28;20499;-75
2022/06/13 07:21:58;;;;;;;1.45;0.30;;;;;;;11.81;89.04;101145.22;5031393;28;20075;-76
2022/06/13 07:24:28;;;;;;;0.30;0.20;;;;;;;11.82;90.05;101146.09;5030629;28;20480;-76
2022/06/13 07:26:57;;;;;;;0.65;0.20;;;;;;;11.83;89.67;101150.47;5030552;28;20049;-77
2022/06/13 07:29:27;;;;;;;0.90;0.15;;;;;;;11.86;89.57;101151.44;5030248;28;20491;-76
2022/06/13 07:31:58;;;;;;;0.05;0.05;;;;;;;11.84;89.18;101149.63;5030859;28;20049;-76
2022/06/13 07:34:29;;;;;;;2.20;0.30;;;;;;;11.81;89.51;101145.22;5030671;28;20080;-76
2022/06/13 07:37:00;;;;;;;0.15;0.13;;;;;;;11.78;89.53;101147.75;5029769;28;20060;-76
2022/06/13 07:39:29;;;;;;;0.63;0.20;;;;;;;11.73;90.52;101150.19;5021680;28;20132;-76
2022/06/13 07:41:58;;;;;;;0.30;0.10;;;;;;;11.68;91.12;101150.88;5021413;28;20103;-77
2022/06/13 07:44:42;;;;;;;2.03;0.30;;;;;;;11.63;92.26;101153.31;5023095;28;20499;-76
2022/06/13 07:47:18;;;;;;;0.10;0.10;;;;;;;11.60;93.47;101162.72;5031590;28;20049;-76
2022/06/13 07:49:46;;;;;;;0.20;0.10;;;;;;;11.60;94.25;101162.72;5029943;28;20053;-76
2022/06/13 07:52:14;;;;;;;1.02;0.17;;;;;;;11.59;94.04;101172.22;5024618;28;20053;-76
2022/06/13 07:54:43;;;;;;;1.17;0.20;;;;;;;11.51;94.06;101152.94;5030309;28;20053;-76
2022/06/13 07:57:13;;;;;;;1.25;0.10;;;;;;;11.58;94.24;101170.44;5030517;28;20046;-76
2022/06/13 07:59:43;;;;;;;1.13;0.20;;;;;;;11.58;94.24;101167.84;5030222;28;20061;-76
2022/06/13 08:02:17;;;;;;;0.80;0.10;;;;;;;11.59;95.34;101173.91;5025511;28;20147;-76
2022/06/13 08:04:46;;;;;;;3.17;0.30;;;;;;;11.60;95.63;101173.97;5031572;28;20115;-76
2022/06/13 08:07:16;;;;;;;0.47;0.10;;;;;;;11.63;96.03;101179.22;5029694;28;20052;-76
2022/06/13 08:09:44;;;;;;;1.38;0.32;;;;;;;11.62;96.23;101181.78;5022331;28;20615;-76
2022/06/13 08:12:16;;;;;;;1.60;0.40;;;;;;;11.63;97.06;101178.34;5030294;28;20041;-76
2022/06/13 08:14:47;;;;;;;1.38;0.30;;;;;;;11.61;96.35;101180.88;5031038;28;20045;-76
2022/06/13 08:17:17;;;;;;;2.47;0.40;;;;;;;11.62;96.57;101181.78;5030210;28;20051;-76
2022/06/13 08:19:46;;;;;;;0.80;0.40;;;;;;;11.62;96.14;101181.78;5029191;28;20111;-76
2022/06/13 08:22:15;;;;;;;1.35;0.38;;;;;;;11.62;95.49;101187.84;5029894;28;20084;-76
2022/06/13 08:24:43;;;;;;;0.90;0.10;;;;;;;11.62;95.45;101186.97;5030108;28;20134;-75
2022/06/13 08:27:12;;;;;;;2.58;0.63;;;;;;;11.61;95.13;101185.19;5030201;28;20108;-76
2022/06/13 08:29:40;;;;;;;1.88;0.30;;;;;;;11.62;95.38;101192.16;5029487;28;20546;-76
2022/06/13 08:32:12;;;;;;;0.00;0.00;;;;;;;11.58;94.90;101185.13;5029588;28;20045;-76
2022/06/13 08:34:41;;;;;;;3.67;0.35;;;;;;;11.57;95.30;101188.50;5027600;28;20050;-76
2022/06/13 08:37:10;;;;;;;0.80;0.22;;;;;;;11.54;95.22;101189.31;5028176;28;20136;-76
2022/06/13 08:39:38;;;;;;;1.20;0.20;;;;;;;11.54;95.11;101184.13;5027942;28;20147;-76
2022/06/13 08:42:13;;;;;;;0.98;0.20;;;;;;;11.50;94.80;101185.75;5029880;28;20049;-75
2022/06/13 08:44:55;;;;;;;2.42;0.20;;;;;;;11.50;94.71;101183.16;5028552;28;20058;-76
2022/06/13 08:47:31;;;;;;;;;;;;;;;11.51;94.65;101184.91;5023007;28;20049;-75
2022/06/13 08:50:07;;;;;;;2.92;0.38;;;;;;;11.52;94.84;101188.38;5028281;28;19971;-76
2022/06/13 08:52:42;;;;;;;0.25;0.10;;;;;;;11.50;94.92;101187.47;5030846;28;20120;-76
2022/06/13 08:55:14;;;;;;;0.25;0.15;;;;;;;11.50;95.47;101193.53;5029447;28;20049;-76
2022/06/13 08:57:48;;;;;;;0.10;0.10;;;;;;;11.51;94.67;101189.22;5032511;28;20057;-76
2022/06/13 09:00:21;;;;;;;0.08;0.08;;;;;;;11.48;94.49;101194.31;5029591;28;20042;-75
2022/06/13 09:02:55;;;;;;;0.38;0.17;;;;;;;11.49;94.59;101194.34;5024048;28;20052;-76
2022/06/13 09:05:29;;;;;;;1.15;0.20;;;;;;;11.52;94.33;101203.91;5029793;28;20046;-76
2022/06/13 09:08:07;;;;;;;3.95;0.25;;;;;;;11.53;93.54;101195.31;5024931;28;20533;-76
2022/06/13 09:10:41;;;;;;;0.45;0.10;;;;;;;11.55;94.01;101196.25;5029223;28;20104;-76
2022/06/13 09:13:14;;;;;;;1.65;0.25;;;;;;;11.55;93.57;101195.38;5026853;28;20148;-76
2022/06/13 09:15:47;;;;;;;0.20;0.20;;;;;;;11.51;93.57;101195.28;5012887;28;20052;-77
2022/06/13 09:18:24;;;;;;;2.30;0.20;;;;;;;11.48;94.10;101195.19;5026838;28;20545;-77
2022/06/13 09:20:59;;;;;;;0.60;0.10;;;;;;;11.40;93.62;101182.78;5028210;28;20054;-76
2022/06/13 09:23:39;;;;;;;0.63;0.10;;;;;;;11.38;93.79;101197.41;5027535;28;20054;-76
2022/06/13 09:26:16;;;;;;;1.45;0.13;;;;;;;11.35;92.97;101193.00;5029226;28;20076;-76
2022/06/13 09:28:52;;;;;;;1.88;0.25;;;;;;;11.37;93.47;101196.53;5027345;28;20037;-76
2022/06/13 09:31:28;;;;;;;1.77;0.25;;;;;;;11.37;91.76;101196.53;5028890;28;20585;-76
2022/06/13 09:34:05;;;;;;;0.20;0.10;;;;;;;11.28;93.74;101196.22;5029290;28;20502;-75
2022/06/13 09:36:36;;;;;;;2.50;0.85;;;;;;;11.17;94.40;101194.97;5027037;28;20045;-76
2022/06/13 09:39:11;;;;;;;0.57;0.30;;;;;;;11.08;95.22;101205.91;5026028;28;20442;-76
2022/06/13 09:42:02;;;;;;;0.47;0.10;;;;;;;11.00;95.92;101209.94;5027833;28;20111;-75
2022/06/13 09:44:47;;;;;;;4.60;0.40;;;;;;;10.98;96.36;101211.59;5026528;28;20766;-76
2022/06/13 09:47:24;;;;;;;0.80;0.10;;;;;;;10.99;97.03;101215.94;5027919;28;20053;-76
2022/06/13 09:50:01;;;;;;;1.60;0.28;;;;;;;10.99;97.94;101214.22;5022155;28;20065;-76
2022/06/13 09:52:41;;;;;;;0.95;0.20;;;;;;;11.01;97.67;101215.16;5029739;28;20053;-76
2022/06/13 09:55:16;;;;;;;0.50;0.20;;;;;;;11.04;97.03;101212.69;5030171;28;20045;-75
2022/06/13 09:57:55;;;;;;;0.25;0.10;;;;;;;11.04;97.31;101212.69;5027864;28;20475;-76
2022/06/13 10:00:29;;;;;;;0.25;0.15;;;;;;;11.04;97.73;101220.47;5026216;28;20491;-76
2022/06/13 10:03:07;;;;;;;1.48;0.15;;;;;;;11.08;97.56;101217.13;5026871;28;20052;-75
2022/06/13 10:05:40;;;;;;;0.17;0.10;;;;;;;11.05;97.21;101213.56;5018697;28;20114;-76
2022/06/13 10:08:28;;;;;;;1.48;0.40;;;;;;;11.08;97.14;101219.72;5028474;28;20053;-76
2022/06/13 10:11:05;;;;;;;0.55;0.30;;;;;;;11.08;97.87;101227.50;5025977;28;20049;-76
2022/06/13 10:13:46;;;;;;;0.38;0.20;;;;;;;11.09;98.01;101226.69;5019534;28;20049;-76
2022/06/13 10:16:20;;;;;;;2.53;0.15;;;;;;;11.08;97.34;101224.91;5025906;28;20045;-76
2022/06/13 10:19:10;;;;;;;0.38;0.20;;;;;;;11.14;97.27;101228.56;5028327;28;20411;-76
2022/06/13 10:21:46;;;;;;;0.17;0.08;;;;;;;11.09;97.96;101231.88;5030601;28;20037;-76
2022/06/13 10:24:26;;;;;;;2.47;0.20;;;;;;;11.04;98.44;101238.59;5021049;28;20156;-76
2022/06/13 10:27:04;;;;;;;4.20;0.28;;;;;;;10.99;99.43;101239.25;5030034;28;20052;-76
2022/06/13 10:29:49;;;;;;;3.60;0.45;;;;;;;10.98;99.53;101238.38;5031482;28;20495;-76
2022/06/13 10:32:31;;;;;;;0.60;0.30;;;;;;;10.96;99.56;101241.72;5030322;28;20049;-76
2022/06/13 10:35:13;;;;;;;0.80;0.30;;;;;;;10.93;99.89;101244.22;5029812;28;20045;-76
2022/06/13 10:37:59;;;;;;;0.00;0.00;;;;;;;10.94;99.55;101259.78;5025414;28;20107;-75
2022/06/13 10:40:28;;;;;;;0.50;0.28;;;;;;;10.92;99.78;101252.78;5026370;28;20115;-75
2022/06/13 10:42:57;;;;;;;2.92;0.28;;;;;;;10.92;98.79;101251.09;5031923;28;20103;-76
2022/06/13 10:45:25;;;;;;;0.57;0.35;;;;;;;10.88;99.21;101257.88;5033127;28;20049;-76
2022/06/13 10:47:59;;;;;;;0.50;0.10;;;;;;;10.86;99.61;101254.34;5028142;28;20077;-76
2022/06/13 10:50:39;;;;;;;1.92;0.43;;;;;;;10.83;99.07;101253.34;5034018;28;20100;-76
2022/06/13 10:53:19;;;;;;;0.22;0.15;;;;;;;10.84;98.80;101260.31;5031495;28;20419;-76
2022/06/13 10:55:50;;;;;;;1.75;0.28;;;;;;;10.84;98.75;101261.19;5032504;28;20045;-76
2022/06/13 10:58:23;;;;;;;0.20;0.20;;;;;;;10.87;98.92;101255.22;5029348;28;20483;-75
2022/06/13 11:01:09;;;;;;;0.65;0.10;;;;;;;10.90;98.60;101263.09;5026116;28;20049;-76
2022/06/13 11:03:41;;;;;;;1.17;0.30;;;;;;;10.94;98.18;101264.97;5028392;28;21227;-75
2022/06/13 11:06:19;;;;;;;2.90;0.83;;;;;;;10.98;97.76;101269.44;5032124;28;20054;-76
2022/06/13 11:09:00;;;;;;;2.05;0.55;;;;;;;10.97;98.45;101266.78;5030228;28;20053;-75
2022/06/13 11:11:38;;;;;;;5.05;0.68;;;;;;;10.93;98.62;101271.00;5016517;28;20534;-76
2022/06/13 11:14:17;;;;;;;1.65;0.40;;;;;;;10.92;98.23;101271.81;5025463;28;20057;-75
2022/06/13 11:22:40;;;;;;;1.42;0.40;;;;;;;10.87;98.64;101281.13;5012445;28;20128;-75
2022/06/13 11:25:23;;;;;;;4.05;0.60;;;;;;;10.86;98.79;101279.38;5030687;28;20053;-75
2022/06/13 11:28:02;;;;;;;;;;;;;;;10.81;97.44;101286.97;5031561;28;20053;-76
2022/06/13 11:30:42;;;;;;;0.45;0.25;;;;;;;10.82;97.11;101280.94;5028790;28;19935;-75
2022/06/13 11:33:26;;;;;;;0.22;0.10;;;;;;;10.83;96.21;101268.88;5028620;28;20041;-75
2022/06/13 11:35:57;;;;;;;1.75;0.40;;;;;;;10.82;96.73;101282.66;5025313;28;20046;-76
2022/06/13 11:38:27;;;;;;;1.45;0.20;;;;;;;10.75;95.85;101275.50;5030793;28;20100;-76
2022/06/13 11:41:06;;;;;;;0.38;0.15;;;;;;;10.80;95.74;101294.66;5023568;28;20050;-75
2022/06/13 11:43:39;;;;;;;2.08;0.47;;;;;;;10.76;96.47;101297.94;5029466;28;20276;-75
2022/06/13 11:46:13;;;;;;;2.20;0.30;;;;;;;10.73;95.72;101296.13;5031076;28;20096;-75
2022/06/13 11:48:48;;;;;;;2.17;0.95;;;;;;;10.67;95.76;101295.91;5030853;28;20515;-75
2022/06/13 11:51:25;;;;;;;1.23;0.43;;;;;;;10.55;96.79;101295.44;5031799;28;20045;-75
2022/06/13 11:53:55;;;;;;;0.30;0.10;;;;;;;10.51;96.90;101296.13;5020037;28;20491;-76
2022/06/13 11:56:28;;;;;;;1.35;0.43;;;;;;;10.49;97.64;101298.69;5030905;28;20729;-76
2022/06/13 11:59:00;;;;;;;2.30;0.35;;;;;;;10.49;96.46;101303.88;5025787;28;20041;-76
2022/06/13 12:01:35;;;;;;;0.20;0.17;;;;;;;10.46;96.60;101298.56;5028715;28;20049;-76
2022/06/13 12:04:16;;;;;;;1.35;0.20;;;;;;;10.48;96.14;101307.25;5029155;28;20472;-75
2022/06/13 12:06:47;;;;;;;0.55;0.00;;;;;;;10.50;96.13;101309.91;5031197;28;20053;-76
2022/06/13 12:09:21;;;;;;;0.85;0.20;;;;;;;10.49;96.90;101309.03;5029768;28;20049;-76
2022/06/13 12:11:58;;;;;;;0.30;0.13;;;;;;;10.50;96.72;101313.38;5029742;28;20491;-76
2022/06/13 12:14:27;;;;;;;0.57;0.10;;;;;;;10.50;96.40;101313.38;5030378;28;20045;-75
2022/06/13 12:17:04;;;;;;;3.20;0.20;;;;;;;10.48;96.54;101309.84;5029400;28;20103;-76